Aérodrome :
LOGIN :

S'inscrire | Disclaimer

   EN    FR    IT 

 










Légende :    VFR   VFR Marginal   IFR   IFR Intensif   IFR Très Intensif
Visi : 
Plafond : 
>= 8 km
>= 3000ft
5 à 8 km
1000 à 3000 ft
1500m à 5 km
500 à 1000 ft
800 à 1500m
200 à 500 ft
< 800m
< 200 ft
Symboles :   Orages  Brouillard  Fortes neiges  Fortes précipitations  Vent > 20 kt
SIGMETs :   Divers  Orages  Givrage  Turbulence  Onde Orograph.  Cendres Volcan.







- Altitude de l'aérodrome : 266 ft
- Code IATA : NCL
- Voir les cartes d'approche


EGNT - Newcastle

DERNIER METAR :
  • 201820Z 30006KT CAVOK M01/M03 Q1004

METARs EXPIRÉS :
  • 201750Z 29006KT 9999 FEW015 M01/M03 Q1003
  • 201720Z 29007KT 9999 FEW015 M00/M03 Q1003
  • 201650Z 31005KT 9999 FEW015 01/M02 Q1002

TAF TAF EGNT
Valide du 20 à 18h jusqu'au 21 à 18h UTC


201656Z 2018/2118 27008KT 9999 FEW020
PROB30
TEMPO 2021/2109 2000 BR
BECMG 2110/2113 16010KT BKN008
TEMPO 2111/2118 7000 -RA
PROB30
TEMPO 2111/2115 4000 RA -RASN BKN004
ATIS : +44 191 214 3400
Pas de NOTAMs connus pour ce terrain.



MET'MAP, la Météo Aéronautique d'un coup d'oeil ! - Copyright ORBIFLY Décembre 2007 - Disclaimer

ORBIFLY MET'MAP TEAM :

Programmation & Développement : Alexandra Zaïnal
Conception & Développement : Baudouin d'Aumeries
Co-Programmation & Développement : Marc-Olivier Méhu
Soutien technique & logistique : Manuel Goepfert

Contact : metmap@orbifly.com




SOURCES & CREDITS :

   NOAA